Time;durP1;ratioP1;P1;durP2;ratioP2;P2;SDS_P1;SDS_P2;PMS_P1;PMS_P2;Temp;Humidity;BMP_temperature;BMP_pressure;BME280_temperature;BME280_humidity;BME280_pressure;Samples;Min_cycle;Max_cycle;Signal;HPM_P1;HPM_P2
2022/09/25 00:01:42;;;;;;;22.00;19.73;;;;;;;15.67;74.51;100057.72;5093243;28;20061;-62
2022/09/25 00:04:10;;;;;;;23.00;20.60;;;;;;;15.67;74.29;100063.31;5093141;28;20489;-62
2022/09/25 00:06:39;;;;;;;22.60;20.20;;;;;;;15.69;74.61;100057.34;5092919;28;20052;-63
2022/09/25 00:09:07;;;;;;;23.25;20.08;;;;;;;15.68;73.81;100064.94;5113698;28;20415;-62
2022/09/25 00:11:34;;;;;;;21.75;19.38;;;;;;;15.71;74.22;100066.25;5113453;28;20062;-62
2022/09/25 00:14:02;;;;;;;25.23;21.40;;;;;;;15.71;74.39;100067.03;5113292;28;20511;-62
2022/09/25 00:16:31;;;;;;;22.27;19.38;;;;;;;15.71;74.01;100064.25;5097897;28;20060;-62
2022/09/25 00:21:52;;;;;;;20.75;18.55;;;;;;;15.70;73.98;100068.22;5101858;28;20052;-62
2022/09/25 00:24:20;;;;;;;25.33;21.95;;;;;;;15.69;73.96;100075.00;5113191;28;20052;-63
2022/09/25 00:26:47;;;;;;;22.95;18.77;;;;;;;15.72;74.40;100065.88;5113133;28;20063;-63
2022/09/25 00:29:17;;;;;;;23.25;19.15;;;;;;;15.74;73.66;100066.34;5112101;28;20078;-63
2022/09/25 00:31:44;;;;;;;22.10;19.75;;;;;;;15.75;74.13;100068.00;5113278;28;20060;-62
2022/09/25 00:34:13;;;;;;;23.17;20.70;;;;;;;15.74;73.62;100055.13;5106375;28;20059;-62
2022/09/25 00:36:40;;;;;;;23.53;19.80;;;;;;;15.75;74.00;100062.38;5113051;28;20056;-62
2022/09/25 00:39:08;;;;;;;22.25;19.83;;;;;;;15.76;73.76;100054.75;5113103;28;20416;-62
2022/09/25 00:41:35;;;;;;;21.98;18.73;;;;;;;15.78;74.26;100052.41;5112658;28;20063;-62
2022/09/25 00:44:24;;;;;;;21.70;19.40;;;;;;;15.77;74.08;100060.03;5112830;28;20052;-62
2022/09/25 00:46:51;;;;;;;21.88;19.35;;;;;;;15.77;73.63;100057.22;5096150;28;20048;-63
2022/09/25 00:49:24;;;;;;;24.73;20.08;;;;;;;15.79;73.45;100057.69;5112994;28;20067;-62
2022/09/25 00:51:57;;;;;;;26.20;20.45;;;;;;;15.83;73.60;100063.38;5112630;28;20048;-63
2022/09/25 00:54:28;;;;;;;24.60;19.40;;;;;;;15.83;73.00;100052.13;5112871;28;20072;-62
2022/09/25 00:56:58;;;;;;;24.75;20.17;;;;;;;15.83;72.90;100057.75;5113204;28;20443;-62
2022/09/25 00:59:29;;;;;;;23.77;19.80;;;;;;;15.82;73.33;100056.94;5112730;28;20062;-62
2022/09/25 01:01:57;;;;;;;23.90;20.40;;;;;;;15.83;73.19;100064.22;5101554;28;20523;-62
2022/09/25 01:04:28;;;;;;;21.73;18.67;;;;;;;15.83;72.70;100063.38;5092130;28;20051;-62
2022/09/25 01:06:56;;;;;;;23.13;19.65;;;;;;;15.79;73.59;100063.28;5092282;28;20056;-62
2022/09/25 01:09:24;;;;;;;22.60;18.65;;;;;;;15.74;72.93;100066.34;5092146;28;20060;-63
2022/09/25 01:11:52;;;;;;;21.27;16.77;;;;;;;15.72;72.43;100063.09;5092764;28;20052;-62
2022/09/25 01:14:22;;;;;;;22.05;18.38;;;;;;;15.65;72.72;100064.88;5092368;28;20063;-62
2022/09/25 01:16:59;;;;;;;19.65;16.35;;;;;;;15.61;72.82;100067.56;5106946;28;20504;-62
2022/09/25 01:19:42;;;;;;;21.17;16.58;;;;;;;15.54;72.04;100072.97;5112270;28;20062;-62
2022/09/25 01:22:16;;;;;;;17.75;14.35;;;;;;;15.46;73.02;100066.34;5112931;28;20436;-62
2022/09/25 01:24:55;;;;;;;17.15;13.07;;;;;;;15.47;72.01;100061.53;5112436;28;20055;-62
2022/09/25 01:27:32;;;;;;;14.98;12.60;;;;;;;15.47;71.83;100061.53;5112688;28;20063;-62
2022/09/25 01:30:07;;;;;;;15.93;12.63;;;;;;;15.43;72.29;100067.88;5108828;28;20055;-62
2022/09/25 01:32:43;;;;;;;17.40;12.30;;;;;;;15.42;71.99;100066.25;5111500;28;20059;-62
2022/09/25 01:35:18;;;;;;;15.60;11.57;;;;;;;15.40;72.41;100056.56;5112646;28;20059;-62
2022/09/25 01:37:52;;;;;;;14.05;10.80;;;;;;;15.38;72.45;100061.69;5103748;28;20059;-62
2022/09/25 01:40:27;;;;;;;15.77;10.25;;;;;;;15.37;71.07;100066.50;5092907;28;20535;-62
2022/09/25 01:43:04;;;;;;;17.88;10.23;;;;;;;15.33;71.79;100065.59;5096159;28;20444;-62
2022/09/25 01:45:42;;;;;;;15.45;10.48;;;;;;;15.30;72.01;100069.09;5095585;28;20059;-62
2022/09/25 01:48:13;;;;;;;14.70;10.23;;;;;;;15.32;71.58;100071.53;5095735;28;20063;-62
2022/09/25 01:50:46;;;;;;;12.45;9.15;;;;;;;15.29;71.13;100070.28;5099299;28;20063;-62
2022/09/25 01:53:18;;;;;;;13.30;10.20;;;;;;;15.28;71.83;100068.63;5115907;28;20079;-64
2022/09/25 01:55:50;;;;;;;14.00;11.00;;;;;;;15.27;72.08;100081.03;5116307;28;20051;-62
2022/09/25 01:58:23;;;;;;;12.70;10.23;;;;;;;15.29;71.47;100070.28;5115082;28;20495;-62
2022/09/25 02:00:58;;;;;;;14.90;10.48;;;;;;;15.27;72.13;100075.44;5099551;28;20051;-62
2022/09/25 02:03:35;;;;;;;18.75;10.52;;;;;;;15.23;71.65;100074.50;5095690;28;20060;-62
2022/09/25 02:06:06;;;;;;;15.20;9.75;;;;;;;15.21;71.83;100072.03;5095473;28;20055;-62
2022/09/25 02:08:38;;;;;;;13.43;9.50;;;;;;;15.21;72.73;100072.03;5095764;28;20052;-62
2022/09/25 02:11:07;;;;;;;13.38;9.13;;;;;;;15.20;72.46;100069.59;5095858;28;20055;-62
2022/09/25 02:13:42;;;;;;;15.27;9.38;;;;;;;15.18;72.18;100069.13;5094647;28;20060;-62
2022/09/25 02:16:13;;;;;;;13.82;8.45;;;;;;;15.19;72.66;100065.97;5110780;28;20052;-62
2022/09/25 02:21:32;;;;;;;13.27;7.07;;;;;;;15.09;72.55;100071.28;5117649;28;20063;-62
2022/09/25 02:24:11;;;;;;;11.73;7.80;;;;;;;15.07;73.31;100077.22;5115401;28;20052;-62
2022/09/25 02:26:38;;;;;;;15.82;7.47;;;;;;;15.05;74.41;100067.53;5115348;28;20503;-62
2022/09/25 02:29:06;;;;;;;10.77;7.18;;;;;;;15.04;73.99;100077.13;5113192;28;20059;-62
2022/09/25 02:31:39;;;;;;;10.63;6.65;;;;;;;15.05;74.14;100073.16;5115399;28;20055;-62
2022/09/25 02:34:07;;;;;;;14.90;7.75;;;;;;;15.04;73.56;100074.34;5115401;28;20424;-62
2022/09/25 02:36:34;;;;;;;11.80;7.00;;;;;;;15.03;73.87;100073.50;5115579;28;20472;-62
2022/09/25 02:39:05;;;;;;;11.98;6.40;;;;;;;15.03;73.64;100076.31;5115428;28;20059;-62
2022/09/25 02:41:48;;;;;;;12.18;6.97;;;;;;;15.00;73.74;100068.59;5115136;28;20055;-62
2022/09/25 02:44:24;;;;;;;10.48;6.78;;;;;;;14.97;74.99;100070.13;5113561;28;20063;-62
2022/09/25 02:47:03;;;;;;;12.15;6.15;;;;;;;14.96;74.66;100064.88;5114775;28;20063;-62
2022/09/25 02:49:40;;;;;;;8.25;5.85;;;;;;;14.92;74.62;100069.56;5115012;28;20416;-62
2022/09/25 02:52:13;;;;;;;10.68;5.85;;;;;;;14.91;73.84;100063.13;5113347;28;20158;-62
2022/09/25 02:54:46;;;;;;;10.13;5.95;;;;;;;14.94;74.70;100068.03;5114576;28;20052;-62
2022/09/25 02:57:27;;;;;;;10.43;5.35;;;;;;;14.92;74.53;100073.16;5115276;28;20056;-64
2022/09/25 02:59:59;;;;;;;11.98;5.38;;;;;;;14.90;74.56;100066.28;5114309;28;20071;-64
2022/09/25 03:02:31;;;;;;;10.90;5.13;;;;;;;14.90;74.60;100061.50;5114753;28;20066;-64
2022/09/25 03:05:00;;;;;;;10.25;4.55;;;;;;;14.87;75.03;100065.03;5114514;28;20404;-64
2022/09/25 03:07:27;;;;;;;14.20;5.00;;;;;;;14.85;73.80;100064.56;5114425;28;20059;-64
2022/09/25 03:09:56;;;;;;;8.52;4.30;;;;;;;14.87;74.41;100062.22;5114116;28;20063;-64
2022/09/25 03:12:24;;;;;;;9.57;4.68;;;;;;;14.91;74.03;100065.09;5113032;28;20070;-64
2022/09/25 03:14:51;;;;;;;6.70;4.03;;;;;;;14.89;75.02;100065.47;5114256;28;20415;-64
2022/09/25 03:17:20;;;;;;;6.70;3.92;;;;;;;14.92;74.30;100064.75;5114407;28;20480;-64
2022/09/25 03:19:49;;;;;;;8.95;4.43;;;;;;;14.89;73.82;100075.84;5113272;28;20055;-64
2022/09/25 03:22:21;;;;;;;9.13;3.38;;;;;;;14.85;73.79;100069.34;5114097;28;20066;-64
2022/09/25 03:24:49;;;;;;;9.07;3.88;;;;;;;14.85;74.58;100067.34;5114320;28;20407;-64
2022/09/25 03:27:16;;;;;;;9.60;3.65;;;;;;;14.85;74.45;100067.34;5112353;28;20388;-64
2022/09/25 03:29:49;;;;;;;7.47;3.28;;;;;;;14.91;73.75;100068.75;5114132;28;20514;-64
2022/09/25 03:32:19;;;;;;;8.57;3.35;;;;;;;14.89;74.28;100076.69;5113767;28;20063;-64
2022/09/25 03:34:47;;;;;;;10.45;3.03;;;;;;;14.89;73.83;100073.06;5113800;28;20059;-64
2022/09/25 03:37:16;;;;;;;5.65;2.90;;;;;;;14.89;73.20;100073.91;5114266;28;20503;-65
2022/09/25 03:39:43;;;;;;;7.57;3.13;;;;;;;14.87;72.76;100069.81;5114252;28;20063;-64
2022/09/25 03:42:10;;;;;;;8.57;3.05;;;;;;;14.84;73.05;100073.31;5102933;28;20051;-64
2022/09/25 03:44:37;;;;;;;8.20;2.65;;;;;;;14.86;72.49;100080.19;5093432;28;20060;-64
2022/09/25 03:47:05;;;;;;;8.35;2.65;;;;;;;14.84;73.21;100076.94;5093505;28;20052;-64
2022/09/25 03:49:34;;;;;;;7.88;2.35;;;;;;;14.86;72.23;100070.97;5093399;28;20082;-64
2022/09/25 03:52:02;;;;;;;7.43;2.67;;;;;;;14.76;72.95;100061.88;5093090;28;20071;-65
2022/09/25 03:54:30;;;;;;;8.75;2.83;;;;;;;14.83;71.99;100072.50;5093363;28;20052;-64
2022/09/25 03:56:58;;;;;;;7.70;2.55;;;;;;;14.77;72.24;100073.91;5110015;28;20412;-65
2022/09/25 03:59:25;;;;;;;6.50;2.33;;;;;;;14.80;72.89;100078.81;5113956;28;20056;-64
2022/09/25 04:01:53;;;;;;;8.45;2.38;;;;;;;14.76;71.73;100078.72;5113242;28;20062;-65
2022/09/25 04:04:21;;;;;;;7.38;2.30;;;;;;;14.75;72.28;100076.25;5113029;28;20059;-64
2022/09/25 04:06:48;;;;;;;8.15;2.30;;;;;;;14.70;71.37;100073.66;5113034;28;20056;-65
2022/09/25 04:09:16;;;;;;;7.13;2.40;;;;;;;14.66;71.69;100083.94;5113414;28;20063;-64
2022/09/25 04:11:47;;;;;;;6.22;2.50;;;;;;;14.64;72.56;100080.72;5111453;28;20074;-64
2022/09/25 04:14:15;;;;;;;5.97;1.98;;;;;;;14.65;71.82;100083.13;5113345;28;20066;-64
2022/09/25 04:16:42;;;;;;;7.80;2.05;;;;;;;14.68;72.07;100081.63;5113363;28;20056;-64
2022/09/25 04:19:10;;;;;;;5.38;2.15;;;;;;;14.69;72.36;100077.66;5113323;28;20078;-64
2022/09/25 04:21:37;;;;;;;4.80;1.90;;;;;;;14.74;71.93;100080.22;5113280;28;20468;-64
2022/09/25 04:26:52;;;;;;;7.85;2.00;;;;;;;14.71;70.82;100069.72;5113806;28;20059;-64
2022/09/25 04:29:20;;;;;;;5.32;2.20;;;;;;;14.68;70.88;100071.25;5113387;28;20523;-64
2022/09/25 04:33:44;;;;;;;6.90;1.85;;;;;;;14.68;70.87;100073.19;5113283;28;20063;-64
2022/09/25 04:34:36;;;;;;;5.00;1.80;;;;;;;14.67;70.98;100072.41;5112994;28;20052;-64
2022/09/25 04:37:03;;;;;;;8.70;2.17;;;;;;;14.63;71.38;100076.25;5112663;28;20058;-64
2022/09/25 04:39:31;;;;;;;7.75;2.28;;;;;;;14.64;70.60;100075.09;5103286;28;20056;-64
2022/09/25 04:42:03;;;;;;;4.95;1.98;;;;;;;14.61;69.95;100073.78;5092900;28;20499;-64
2022/09/25 04:44:30;;;;;;;7.80;2.20;;;;;;;14.59;70.48;100074.16;5092348;28;20412;-64
2022/09/25 04:46:58;;;;;;;6.35;2.10;;;;;;;14.57;70.68;100073.69;5092393;28;20048;-64
2022/09/25 04:49:28;;;;;;;5.35;2.03;;;;;;;14.54;71.32;100074.34;5092243;28;20052;-64
2022/09/25 04:51:55;;;;;;;10.95;2.50;;;;;;;14.49;70.14;100082.19;5091768;28;20079;-64
2022/09/25 04:54:23;;;;;;;8.93;2.20;;;;;;;14.51;71.37;100080.69;5107249;28;20055;-64
2022/09/25 04:56:50;;;;;;;5.03;2.10;;;;;;;14.48;70.64;100078.56;5112746;28;20256;-64
2022/09/25 04:59:19;;;;;;;6.75;1.88;;;;;;;14.46;70.49;100068.88;5112497;28;20063;-64
2022/09/25 05:01:47;;;;;;;4.03;1.77;;;;;;;14.41;70.34;100067.13;5112384;28;20071;-64
2022/09/25 05:04:15;;;;;;;6.85;1.73;;;;;;;14.40;71.01;100071.09;5112334;28;20826;-64
2022/09/25 05:06:42;;;;;;;7.30;1.98;;;;;;;14.36;70.56;100064.53;5111450;28;20063;-63
2022/09/25 05:09:10;;;;;;;8.13;2.15;;;;;;;14.30;71.09;100063.97;5110557;28;20055;-64
2022/09/25 05:11:37;;;;;;;6.15;1.80;;;;;;;14.24;71.02;100073.78;5112627;28;20395;-65
2022/09/25 05:14:04;;;;;;;5.85;2.05;;;;;;;14.17;70.40;100082.78;5112433;28;20067;-64
2022/09/25 05:16:33;;;;;;;8.70;1.98;;;;;;;14.11;71.53;100080.53;5115916;28;20059;-64
2022/09/25 05:19:00;;;;;;;7.45;2.13;;;;;;;14.05;71.18;100073.50;5116663;28;20059;-65
2022/09/25 05:21:27;;;;;;;5.78;2.00;;;;;;;13.96;70.94;100080.06;5113686;28;20508;-64
2022/09/25 05:23:55;;;;;;;6.93;2.15;;;;;;;13.93;71.08;100082.72;5116833;28;20420;-64
2022/09/25 05:26:23;;;;;;;8.52;2.50;;;;;;;13.92;71.72;100079.09;5116082;28;20059;-64
2022/09/25 05:28:50;;;;;;;7.65;2.30;;;;;;;13.90;72.22;100075.00;5116299;28;20059;-65
2022/09/25 05:31:19;;;;;;;9.70;1.98;;;;;;;13.87;71.98;100075.69;5116441;28;20048;-64
2022/09/25 05:33:47;;;;;;;8.80;2.40;;;;;;;13.88;72.49;100074.53;5116559;28;20492;-64
2022/09/25 05:36:17;;;;;;;11.82;2.30;;;;;;;13.88;71.99;100060.53;5115233;28;20060;-64
2022/09/25 05:38:45;;;;;;;5.38;2.33;;;;;;;13.87;72.63;100058.91;5116333;28;20063;-64
2022/09/25 05:41:12;;;;;;;4.13;1.60;;;;;;;13.87;72.72;100059.72;5116134;28;20060;-64
2022/09/25 05:43:41;;;;;;;7.90;2.53;;;;;;;13.87;72.36;100061.72;5116127;28;20060;-64
2022/09/25 05:46:09;;;;;;;8.05;2.47;;;;;;;13.89;72.49;100057.38;5116007;28;20056;-64
2022/09/25 05:48:37;;;;;;;8.95;2.45;;;;;;;13.89;73.17;100063.00;5116356;28;20165;-64
2022/09/25 05:51:06;;;;;;;3.90;2.03;;;;;;;13.94;72.53;100061.94;5113593;28;20428;-64
2022/09/25 05:53:34;;;;;;;8.88;2.25;;;;;;;13.94;73.35;100070.34;5106159;28;20063;-64
2022/09/25 05:56:04;;;;;;;5.50;2.40;;;;;;;13.93;72.37;100068.72;5095769;28;20075;-64
2022/09/25 05:58:32;;;;;;;7.15;2.28;;;;;;;13.93;73.60;100066.72;5095273;28;20059;-64
2022/09/25 06:01:02;;;;;;;6.32;2.40;;;;;;;13.97;72.36;100075.25;5095470;28;20492;-65
2022/09/25 06:03:29;;;;;;;7.00;2.20;;;;;;;13.98;72.48;100076.88;5095439;28;20060;-65
2022/09/25 06:05:56;;;;;;;7.35;2.20;;;;;;;14.00;71.85;100069.75;5094949;28;20052;-64
2022/09/25 06:08:25;;;;;;;9.07;2.30;;;;;;;13.97;72.51;100075.25;5094578;28;20064;-64
2022/09/25 06:10:54;;;;;;;5.63;1.90;;;;;;;13.98;72.84;100076.88;5095290;28;20060;-64
2022/09/25 06:13:22;;;;;;;7.70;2.30;;;;;;;13.98;72.83;100077.72;5095317;28;20060;-64
2022/09/25 06:15:51;;;;;;;6.95;2.58;;;;;;;14.02;72.58;100077.81;5095103;28;20142;-64
2022/09/25 06:18:20;;;;;;;5.50;2.13;;;;;;;14.05;72.41;100070.69;5094981;28;20056;-65
2022/09/25 06:20:47;;;;;;;8.23;2.15;;;;;;;14.07;71.90;100071.19;5095316;28;20059;-64
2022/09/25 06:23:15;;;;;;;7.68;2.20;;;;;;;14.08;71.30;100076.44;5115584;28;20070;-64
2022/09/25 06:25:45;;;;;;;5.65;2.42;;;;;;;14.15;71.01;100085.09;5115141;28;20063;-64
2022/09/25 06:28:12;;;;;;;9.48;2.65;;;;;;;14.13;70.84;100084.63;5115327;28;20056;-64
2022/09/25 06:30:39;;;;;;;5.53;2.15;;;;;;;14.10;71.10;100079.72;5115215;28;20048;-64
2022/09/25 06:33:11;;;;;;;6.05;2.13;;;;;;;14.08;72.02;100084.84;5115159;28;20059;-65
2022/09/25 06:35:41;;;;;;;5.25;2.45;;;;;;;14.05;70.37;100084.72;5104620;28;20056;-65
2022/09/25 06:38:09;;;;;;;6.25;2.10;;;;;;;14.06;71.71;100089.16;5094709;28;20052;-65
2022/09/25 06:40:39;;;;;;;7.88;2.25;;;;;;;14.08;71.72;100098.03;5094709;28;20063;-65
2022/09/25 06:43:10;;;;;;;6.03;2.42;;;;;;;14.09;71.27;100094.06;5094682;28;20067;-65
2022/09/25 06:45:40;;;;;;;4.95;2.03;;;;;;;14.08;70.82;100093.25;5094595;28;20503;-65
2022/09/25 06:48:10;;;;;;;5.88;2.10;;;;;;;14.10;70.79;100101.31;5094165;28;20056;-65
2022/09/25 06:50:41;;;;;;;6.50;2.00;;;;;;;14.13;71.15;100095.84;5104737;28;20044;-65
2022/09/25 06:53:09;;;;;;;6.18;2.67;;;;;;;14.20;70.03;100098.88;5115420;28;20141;-65
2022/09/25 06:55:36;;;;;;;7.65;2.38;;;;;;;14.23;69.48;100099.34;5114821;28;20557;-65
2022/09/25 06:58:05;;;;;;;7.43;2.60;;;;;;;14.30;69.79;100100.41;5104008;28;20059;-66
2022/09/25 07:00:33;;;;;;;6.85;2.10;;;;;;;14.38;70.19;100095.84;5094473;28;20059;-64
2022/09/25 07:05:47;;;;;;;6.03;2.58;;;;;;;14.56;69.16;100096.47;5098333;28;20059;-65
2022/09/25 07:08:16;;;;;;;5.32;2.42;;;;;;;14.64;68.40;100098.34;5094184;28;20059;-65
2022/09/25 07:10:48;;;;;;;6.40;2.88;;;;;;;14.68;68.00;100101.22;5094391;28;20052;-65
2022/09/25 07:13:15;;;;;;;7.78;3.05;;;;;;;14.67;69.05;100105.22;5094253;28;20056;-65
2022/09/25 07:15:50;;;;;;;9.75;3.53;;;;;;;14.71;68.23;100104.16;5094100;28;20060;-65
2022/09/25 07:18:17;;;;;;;8.95;3.38;;;;;;;14.75;67.92;100104.28;5093544;28;20058;-64
2022/09/25 07:20:45;;;;;;;9.77;3.15;;;;;;;15.12;67.19;100104.22;5102653;28;20052;-65
2022/09/25 07:23:13;;;;;;;6.13;2.83;;;;;;;15.32;66.41;100108.84;5114263;28;20393;-65
2022/09/25 07:25:40;;;;;;;9.75;3.17;;;;;;;15.38;65.68;100110.22;5102189;28;20052;-65
2022/09/25 07:28:08;;;;;;;9.75;3.40;;;;;;;15.69;64.79;100110.72;5093385;28;20056;-64
2022/09/25 07:30:35;;;;;;;6.82;3.40;;;;;;;17.65;60.35;100111.88;5093922;28;20122;-65
2022/09/25 07:33:04;;;;;;;8.10;2.63;;;;;;;19.94;54.13;100101.78;5107232;28;20058;-65
2022/09/25 07:35:35;;;;;;;9.05;3.22;;;;;;;21.44;49.66;100102.19;5091698;28;20496;-65
2022/09/25 07:38:02;;;;;;;7.07;2.90;;;;;;;22.90;45.72;100103.69;5102854;28;20047;-65
2022/09/25 07:40:30;;;;;;;5.47;2.95;;;;;;;23.42;43.59;100101.13;5109986;28;20411;-65
2022/09/25 07:42:59;;;;;;;5.40;2.20;;;;;;;24.34;41.10;100105.94;5098362;28;20055;-65
2022/09/25 07:45:29;;;;;;;6.57;3.33;;;;;;;23.31;42.38;100103.22;5108264;28;20056;-66
2022/09/25 07:47:57;;;;;;;6.88;2.75;;;;;;;24.50;40.42;100094.88;5101241;28;20507;-66
2022/09/25 07:50:25;;;;;;;8.82;3.92;;;;;;;25.72;38.12;100097.28;5096057;28;20060;-66
2022/09/25 07:52:54;;;;;;;7.65;4.82;;;;;;;25.60;37.53;100094.16;5101583;28;20051;-66
2022/09/25 07:55:22;;;;;;;7.32;3.17;;;;;;;25.58;38.57;100097.47;5094945;28;20412;-66
2022/09/25 07:57:51;;;;;;;5.85;2.40;;;;;;;26.75;35.57;100098.22;5101825;28;20048;-66
2022/09/25 08:00:19;;;;;;;6.50;4.00;;;;;;;27.17;34.93;100090.09;5113529;28;20056;-66
2022/09/25 08:02:55;;;;;;;5.05;3.72;;;;;;;28.52;32.34;100086.38;5094856;28;20059;-66
2022/09/25 08:05:22;;;;;;;6.53;2.95;;;;;;;29.40;31.42;100082.81;5098361;28;20060;-66
2022/09/25 08:07:52;;;;;;;7.20;2.70;;;;;;;30.43;30.22;100086.66;5093006;28;20174;-66
2022/09/25 08:10:20;;;;;;;6.47;2.58;;;;;;;31.02;28.67;100087.97;5092855;28;20067;-66
2022/09/25 08:12:48;;;;;;;8.35;2.90;;;;;;;32.13;27.29;100085.88;5108560;28;20051;-67
2022/09/25 08:15:18;;;;;;;6.25;2.90;;;;;;;33.36;25.42;100088.09;5100124;28;20058;-67
2022/09/25 08:17:45;;;;;;;6.72;2.28;;;;;;;34.16;24.73;100091.81;5112046;28;20423;-67
2022/09/25 08:20:13;;;;;;;8.33;2.37;;;;;;;32.61;26.25;100089.25;5104431;28;20059;-67
2022/09/25 08:22:46;;;;;;;7.30;2.75;;;;;;;30.76;28.45;100101.56;5092383;28;20063;-67
2022/09/25 08:25:15;;;;;;;7.75;4.93;;;;;;;29.13;30.03;100093.38;5104787;28;20059;-67
2022/09/25 08:27:43;;;;;;;6.63;2.80;;;;;;;27.70;32.06;100096.81;5112996;28;20055;-68
2022/09/25 08:30:12;;;;;;;6.85;2.60;;;;;;;27.10;33.09;100099.63;5100917;28;20391;-67
2022/09/25 08:32:39;;;;;;;7.05;2.95;;;;;;;28.67;31.31;100095.41;5104461;28;20066;-67
2022/09/25 08:35:07;;;;;;;7.60;3.00;;;;;;;29.68;29.78;100087.72;5098304;28;20416;-66
2022/09/25 08:37:40;;;;;;;5.97;2.88;;;;;;;30.73;28.92;100094.66;5110127;28;20056;-66
2022/09/25 08:40:18;;;;;;;7.75;2.58;;;;;;;31.63;27.03;100093.56;5112827;28;20055;-67
2022/09/25 08:42:48;;;;;;;6.63;2.10;;;;;;;32.37;25.88;100089.00;5111836;28;20070;-67
2022/09/25 08:51:05;;;;;;;5.32;1.67;;;;;;;29.82;28.96;100092.25;5097879;28;20059;-67
2022/09/25 08:53:35;;;;;;;4.85;1.80;;;;;;;28.61;29.71;100082.88;5092239;28;20052;-67
2022/09/25 08:56:16;;;;;;;6.40;1.80;;;;;;;27.22;31.92;100093.28;5093274;28;20052;-67
2022/09/25 08:58:51;;;;;;;8.40;1.90;;;;;;;26.55;33.80;100095.28;5099419;28;20047;-66
2022/09/25 09:01:24;;;;;;;5.38;2.28;;;;;;;25.94;34.07;100091.31;5091730;28;20063;-66
2022/09/25 09:04:14;;;;;;;5.57;1.77;;;;;;;25.63;35.28;100094.13;5093059;28;20048;-66
2022/09/25 09:06:43;;;;;;;6.85;2.90;;;;;;;26.61;33.90;100094.38;5111116;28;20063;-66
2022/09/25 09:09:19;;;;;;;8.02;2.20;;;;;;;25.55;35.27;100097.50;5095141;28;20052;-67
2022/09/25 09:11:51;;;;;;;4.72;1.40;;;;;;;24.78;36.44;100095.84;5094290;28;20059;-66
2022/09/25 09:14:21;;;;;;;5.53;2.40;;;;;;;26.72;34.38;100099.91;5092152;28;20063;-65
2022/09/25 09:16:54;;;;;;;4.13;1.75;;;;;;;29.38;30.43;100089.03;5092440;28;20056;-65
2022/09/25 09:19:22;;;;;;;5.35;1.80;;;;;;;31.95;26.73;100090.22;5092518;28;20055;-65
2022/09/25 09:22:03;;;;;;;4.85;2.05;;;;;;;33.64;24.33;100082.28;5092076;28;20056;-66
2022/09/25 09:24:45;;;;;;;5.80;2.40;;;;;;;35.29;23.91;100080.69;5108992;28;20056;-66
2022/09/25 09:27:26;;;;;;;4.85;2.45;;;;;;;35.40;21.66;100077.19;5092054;28;20056;-66
2022/09/25 09:30:03;;;;;;;5.78;2.17;;;;;;;35.69;21.48;100084.34;5092138;28;20060;-66
2022/09/25 09:33:07;;;;;;;7.72;2.38;;;;;;;33.93;23.27;100075.97;5091982;28;20067;-67
2022/09/25 09:35:43;;;;;;;5.07;1.92;;;;;;;36.02;21.20;100071.75;5093780;28;20063;-66
2022/09/25 09:38:22;;;;;;;4.30;2.00;;;;;;;36.86;19.30;100069.34;5090803;28;20052;-66
2022/09/25 09:41:07;;;;;;;7.70;2.30;;;;;;;38.22;18.49;100065.75;5091130;28;20055;-67
2022/09/25 09:43:46;;;;;;;4.70;1.98;;;;;;;38.89;17.97;100065.38;5098159;28;20412;-66
2022/09/25 09:46:27;;;;;;;10.82;2.03;;;;;;;38.71;18.58;100064.53;5102603;28;20074;-67
2022/09/25 09:49:05;;;;;;;7.68;1.65;;;;;;;36.23;20.11;100073.44;5108364;28;20488;-67
2022/09/25 09:51:41;;;;;;;6.55;2.10;;;;;;;33.70;22.24;100086.94;5094148;28;20058;-67
2022/09/25 09:54:14;;;;;;;5.82;2.10;;;;;;;31.86;24.43;100078.69;5099792;28;20496;-66
2022/09/25 09:56:44;;;;;;;6.05;2.63;;;;;;;30.38;25.60;100078.63;5091955;28;20067;-67
2022/09/25 09:59:18;;;;;;;4.78;2.13;;;;;;;29.98;26.60;100079.84;5098008;28;20056;-66
2022/09/25 10:01:52;;;;;;;3.80;1.77;;;;;;;29.06;27.93;100076.34;5103813;28;20058;-66
2022/09/25 10:04:25;;;;;;;6.65;1.60;;;;;;;32.16;24.48;100070.53;5099792;28;20058;-66
2022/09/25 10:07:04;;;;;;;4.47;1.73;;;;;;;35.03;21.32;100062.22;5110808;28;20051;-66
2022/09/25 10:09:32;;;;;;;5.93;2.10;;;;;;;36.90;19.05;100052.53;5101742;28;20056;-67
2022/09/25 10:12:04;;;;;;;4.85;3.30;;;;;;;38.19;17.99;100055.97;5104745;28;20044;-67
2022/09/25 10:14:39;;;;;;;3.88;1.73;;;;;;;39.72;16.34;100055.31;5103609;28;20500;-68
2022/09/25 10:17:10;;;;;;;4.00;2.00;;;;;;;40.93;15.06;100056.25;5114748;27;20060;-67
2022/09/25 10:19:47;;;;;;;6.20;2.47;;;;;;;40.00;15.40;100045.03;5094452;28;20500;-68
2022/09/25 10:22:16;;;;;;;5.65;2.15;;;;;;;37.00;18.24;100059.75;5097384;28;20052;-67
2022/09/25 10:24:54;;;;;;;3.30;1.80;;;;;;;37.99;17.28;100048.13;5098111;28;20059;-67
2022/09/25 10:27:27;;;;;;;5.30;3.15;;;;;;;40.16;15.30;100047.13;5098689;28;20420;-67
2022/09/25 10:30:16;;;;;;;5.40;1.58;;;;;;;37.23;17.35;100051.34;5094057;28;20056;-68
2022/09/25 10:32:48;;;;;;;3.30;1.80;;;;;;;34.47;19.75;100058.88;5098771;28;20096;-67
2022/09/25 10:35:17;;;;;;;4.25;1.45;;;;;;;31.91;21.72;100057.88;5115449;28;20059;-67
2022/09/25 10:37:48;;;;;;;4.35;1.50;;;;;;;30.43;23.34;100063.66;5106128;28;20052;-67
2022/09/25 10:40:26;;;;;;;4.15;2.10;;;;;;;31.58;23.94;100054.66;5094498;28;20048;-66
2022/09/25 10:43:05;;;;;;;3.55;1.92;;;;;;;34.51;20.55;100053.72;5110792;27;20489;-66
2022/09/25 10:45:35;;;;;;;5.18;1.58;;;;;;;36.41;17.81;100048.38;5103169;28;20052;-66
2022/09/25 10:51:11;;;;;;;4.35;2.05;;;;;;;39.42;15.89;100040.47;5101283;28;20063;-67
2022/09/25 10:53:38;;;;;;;4.70;1.60;;;;;;;41.11;14.32;100033.59;5097958;28;20051;-68
2022/09/25 10:56:11;;;;;;;9.98;3.22;;;;;;;41.96;13.70;100039.69;5106023;28;20060;-67
2022/09/25 10:58:42;;;;;;;3.13;1.08;;;;;;;41.98;13.74;100039.94;5101985;28;20063;-68
2022/09/25 11:01:13;;;;;;;4.38;1.20;;;;;;;37.97;15.86;100050.75;5095810;28;20397;-69
2022/09/25 11:03:49;;;;;;;3.22;1.70;;;;;;;35.49;18.27;100056.03;5098934;28;20467;-69
2022/09/25 11:06:20;;;;;;;4.05;1.63;;;;;;;37.17;16.33;100046.28;5104526;28;20052;-67
2022/09/25 11:08:54;;;;;;;3.22;2.25;;;;;;;38.35;15.73;100039.97;5093997;28;20052;-67
2022/09/25 11:11:25;;;;;;;2.53;1.63;;;;;;;40.18;14.72;100038.63;5093661;28;20052;-67
2022/09/25 11:13:57;;;;;;;4.25;1.52;;;;;;;41.73;13.03;100036.16;5111864;28;20527;-66
2022/09/25 11:16:46;;;;;;;2.35;1.20;;;;;;;43.11;12.04;100032.81;5091210;28;20608;-66
2022/09/25 11:19:15;;;;;;;3.58;1.73;;;;;;;43.95;12.36;100024.88;5100612;28;20060;-67
2022/09/25 11:21:50;;;;;;;5.93;2.20;;;;;;;44.58;11.97;100011.47;5107480;28;20056;-67
2022/09/25 11:24:24;;;;;;;4.90;1.67;;;;;;;42.64;12.37;100016.38;5101488;28;20416;-67
2022/09/25 11:26:59;;;;;;;4.80;3.00;;;;;;;37.87;15.19;100029.00;5102335;28;20063;-68
2022/09/25 11:29:39;;;;;;;2.83;1.10;;;;;;;34.57;18.02;100043.09;5092679;28;20052;-69
2022/09/25 11:32:19;;;;;;;3.17;1.45;;;;;;;32.61;19.41;100031.59;5093020;28;20424;-67
2022/09/25 11:35:04;;;;;;;4.57;2.20;;;;;;;33.19;19.08;100034.84;5093747;28;20048;-67
2022/09/25 11:37:39;;;;;;;6.47;3.30;;;;;;;36.69;16.82;100019.78;5098363;28;20051;-67
2022/09/25 11:43:13;;;;;;;3.60;1.83;;;;;;;41.70;13.34;100013.84;5112200;28;20078;-67
2022/09/25 11:45:47;;;;;;;3.67;1.45;;;;;;;39.88;14.04;100007.13;5097698;28;20051;-67
2022/09/25 11:48:23;;;;;;;3.88;2.33;;;;;;;41.57;13.48;100014.44;5092285;28;20052;-67
2022/09/25 11:51:00;;;;;;;5.03;2.08;;;;;;;42.83;12.72;100012.69;5092893;28;20052;-67
2022/09/25 11:53:39;;;;;;;4.25;1.88;;;;;;;44.81;11.15;100010.97;5099899;28;20055;-68
2022/09/25 11:56:22;;;;;;;2.67;1.45;;;;;;;46.01;10.35;100006.81;5113401;28;20060;-68
2022/09/25 11:59:04;;;;;;;4.07;2.10;;;;;;;47.02;9.99;100003.97;5104893;28;20396;-67
2022/09/25 12:01:35;;;;;;;2.95;1.70;;;;;;;46.33;10.01;100009.44;5092623;28;20044;-68
2022/09/25 12:04:31;;;;;;;2.58;1.45;;;;;;;41.97;12.64;100004.00;5107530;28;20063;-68